Airport View

Enter AWOS ICAO identifier for current METAR.

ex. KFNL

KVAY 280254Z AUTO 00000KT 3SM BR OVC003 22/20 A2990 RMK AO2 SLP124 T02170200 50002

28 Sep 2020 03:02

Frequency: 119.325

Phone: 609-267-1176

Other Area AWOS: KPNE - KWRI - N81 - KPHL

TAF AMD KPNE 280142Z 2802/2824 VRB03KT P6SM OVC007 FM280600 VRB02KT 6SM BR OVC004 FM281100 18005KT P6SM OVC010 FM281600 20008KT P6SM BKN045